createdAt,value
2019-01-18T00:07:48.675Z,4.85
2019-01-18T00:12:48.320Z,4.86
2019-01-18T00:16:54.011Z,4.48
2019-01-18T00:20:59.695Z,4.55
2019-01-18T00:29:51.922Z,4.63
2019-01-18T00:33:57.588Z,4.57
2019-01-18T00:38:03.284Z,4.31
2019-01-18T00:42:09.046Z,4.47
2019-01-18T00:46:32.559Z,4.47
2019-01-18T00:50:38.246Z,4.63
2019-01-18T00:54:43.925Z,4.56
2019-01-18T00:58:49.611Z,4.69
2019-01-18T01:02:55.605Z,4.82
2019-01-18T01:07:01.300Z,4.67
2019-01-18T01:11:07.036Z,4.78
2019-01-18T01:15:16.420Z,5.01
2019-01-18T01:19:22.094Z,5.11
2019-01-18T01:23:27.808Z,5.17
2019-01-18T01:27:33.492Z,5.12
2019-01-18T01:31:39.159Z,4.91
2019-01-18T01:35:44.842Z,4.90
2019-01-18T01:39:50.527Z,5.09
2019-01-18T01:43:56.258Z,5.13
2019-01-18T01:48:01.993Z,5.08
2019-01-18T01:52:07.650Z,4.99
2019-01-18T01:56:13.339Z,4.76
2019-01-18T02:00:23.105Z,4.27
2019-01-18T02:04:28.783Z,4.12
2019-01-18T02:08:49.565Z,4.29
2019-01-18T02:12:55.320Z,4.33
2019-01-18T02:17:01.003Z,4.34
2019-01-18T02:21:06.827Z,4.56
2019-01-18T02:25:12.812Z,4.79
2019-01-18T02:29:18.473Z,4.99
2019-01-18T02:33:24.160Z,5.19
2019-01-18T02:37:29.957Z,5.33
2019-01-18T02:41:35.652Z,5.34
2019-01-18T02:45:41.336Z,5.36
2019-01-18T02:49:47.081Z,5.46
2019-01-18T02:53:54.603Z,5.53
2019-01-18T02:58:00.288Z,5.62
2019-01-18T03:02:06.359Z,5.73
2019-01-18T03:06:12.089Z,5.73
2019-01-18T03:10:21.984Z,5.83
2019-01-18T03:14:27.664Z,5.63
2019-01-18T03:18:33.351Z,5.45
2019-01-18T03:22:39.182Z,5.62
2019-01-18T03:26:44.903Z,5.66
2019-01-18T03:30:50.606Z,5.62
2019-01-18T03:34:56.268Z,5.60
2019-01-18T03:39:01.979Z,5.38
2019-01-18T03:43:07.669Z,5.38
2019-01-18T03:47:13.346Z,5.56
2019-01-18T03:51:19.031Z,5.53
2019-01-18T03:55:25.081Z,5.48
2019-01-18T03:59:30.773Z,5.32
2019-01-18T04:03:36.462Z,5.35
2019-01-18T04:18:48.406Z,5.41
2019-01-18T04:29:48.966Z,5.22
2019-01-18T04:34:47.810Z,5.31
2019-01-18T04:39:47.255Z,5.19
2019-01-18T05:03:50.678Z,5.50
2019-01-18T05:13:51.867Z,5.16
2019-01-18T05:18:51.433Z,4.77
2019-01-18T05:49:47.243Z,5.62
2019-01-18T06:19:46.816Z,5.48
2019-01-18T06:34:48.672Z,5.58
2019-01-18T06:38:54.369Z,5.64
2019-01-18T06:59:30.125Z,5.61
2019-01-18T07:03:50.685Z,5.53
2019-01-18T07:08:05.662Z,5.36
2019-01-18T07:12:11.391Z,5.25
2019-01-18T07:16:18.033Z,5.18
2019-01-18T07:20:23.978Z,5.29
2019-01-18T07:24:29.657Z,5.33
2019-01-18T07:28:35.356Z,5.34
2019-01-18T07:32:41.066Z,5.25
2019-01-18T07:36:46.785Z,5.27
2019-01-18T07:40:52.555Z,5.34
2019-01-18T07:44:58.224Z,5.32
2019-01-18T07:49:04.008Z,5.35
2019-01-18T07:53:09.820Z,5.38
2019-01-18T07:57:15.489Z,5.41
2019-01-18T08:01:22.252Z,5.36
2019-01-18T08:05:29.549Z,5.18
2019-01-18T08:09:35.229Z,5.01
2019-01-18T08:13:40.955Z,4.66
2019-01-18T08:17:46.775Z,4.61
2019-01-18T08:21:52.459Z,4.72
2019-01-18T08:25:58.150Z,4.76
2019-01-18T08:30:05.518Z,4.97
2019-01-18T08:34:11.206Z,5.24
2019-01-18T08:38:16.895Z,5.27
2019-01-18T08:42:22.653Z,5.40
2019-01-18T08:46:28.336Z,5.51
2019-01-18T08:50:34.164Z,5.69
2019-01-18T08:54:39.841Z,5.86
2019-01-18T08:58:45.512Z,5.95
2019-01-18T09:02:51.208Z,6.00
2019-01-18T09:06:56.893Z,6.00
2019-01-18T09:11:02.652Z,5.99
2019-01-18T09:15:11.822Z,6.06
2019-01-18T09:19:17.506Z,6.14
2019-01-18T09:23:23.189Z,6.29
2019-01-18T09:27:28.916Z,6.40
2019-01-18T09:31:34.745Z,6.36
2019-01-18T09:35:40.568Z,6.32
2019-01-18T09:39:46.291Z,6.34
2019-01-18T09:43:51.977Z,6.21
2019-01-18T09:47:57.742Z,6.22
2019-01-18T09:52:05.149Z,6.19
2019-01-18T09:56:10.780Z,6.17
2019-01-18T10:05:19.701Z,6.31
2019-01-18T10:09:25.392Z,6.36
2019-01-18T10:13:32.323Z,6.39
2019-01-18T10:17:38.015Z,6.64
2019-01-18T10:21:43.760Z,6.89
2019-01-18T10:25:49.427Z,7.18
2019-01-18T10:29:56.081Z,7.46
2019-01-18T10:34:03.431Z,7.21
2019-01-18T10:38:09.359Z,7.18
2019-01-18T10:42:15.056Z,7.27
2019-01-18T10:46:20.805Z,7.32
2019-01-18T10:50:32.298Z,7.54
2019-01-18T10:54:37.979Z,7.63
2019-01-18T10:58:43.661Z,7.81
2019-01-18T11:02:49.943Z,7.86
2019-01-18T11:06:55.618Z,7.93
2019-01-18T11:11:01.307Z,7.88
2019-01-18T11:15:11.395Z,7.88
2019-01-18T11:19:17.138Z,7.78
2019-01-18T11:23:22.799Z,7.60
2019-01-18T11:27:28.527Z,7.56
2019-01-18T11:31:34.191Z,7.70
2019-01-18T11:35:39.938Z,7.69
2019-01-18T11:39:45.701Z,7.72
2019-01-18T11:43:51.437Z,7.62
2019-01-18T11:47:57.209Z,7.31
2019-01-18T11:52:02.902Z,7.14
2019-01-18T11:56:08.658Z,7.11
2019-01-18T12:00:26.877Z,7.23
2019-01-18T12:04:32.598Z,7.57
2019-01-18T12:08:41.801Z,7.92
2019-01-18T12:12:45.730Z,7.96
2019-01-18T12:16:51.412Z,7.91
2019-01-18T12:20:57.093Z,7.89
2019-01-18T12:25:02.754Z,7.87
2019-01-18T12:29:08.658Z,7.61
2019-01-18T12:33:14.356Z,7.55
2019-01-18T12:37:20.048Z,7.70
2019-01-18T12:41:25.766Z,7.84
2019-01-18T12:45:49.202Z,7.73
2019-01-18T12:49:54.892Z,7.62
2019-01-18T12:54:00.572Z,7.52
2019-01-18T12:58:06.395Z,7.42
2019-01-18T13:02:12.166Z,7.27
2019-01-18T13:06:17.912Z,7.02
2019-01-18T13:10:23.622Z,6.68
2019-01-18T13:14:29.311Z,6.27
2019-01-18T13:18:35.069Z,5.99
2019-01-18T13:22:40.757Z,5.88
2019-01-18T13:26:46.488Z,5.60
2019-01-18T13:30:52.246Z,5.33
2019-01-18T13:34:57.937Z,5.33
2019-01-18T13:39:05.366Z,5.42
2019-01-18T13:43:11.006Z,5.54
2019-01-18T13:47:18.551Z,5.42
2019-01-18T13:51:24.068Z,5.83
2019-01-18T13:55:31.397Z,5.94
2019-01-18T13:59:37.073Z,6.01
2019-01-18T14:03:42.747Z,6.00
2019-01-18T14:07:53.258Z,6.12
2019-01-18T14:11:56.120Z,6.34
2019-01-18T14:16:01.943Z,6.59
2019-01-18T14:20:14.751Z,6.81
2019-01-18T14:24:20.433Z,6.88
2019-01-18T14:28:26.144Z,6.84
2019-01-18T14:32:32.188Z,6.85
2019-01-18T14:36:38.169Z,6.92
2019-01-18T14:40:43.898Z,6.73
2019-01-18T14:44:49.616Z,6.61
2019-01-18T14:48:55.262Z,6.61
2019-01-18T14:53:01.019Z,6.71
2019-01-18T14:57:07.703Z,6.58
2019-01-18T15:01:13.390Z,6.56
2019-01-18T15:05:19.203Z,6.49
2019-01-18T15:09:24.917Z,6.46
2019-01-18T15:13:30.679Z,6.45
2019-01-18T15:17:36.368Z,6.52
2019-01-18T15:21:42.044Z,6.53
2019-01-18T15:25:47.734Z,6.54
2019-01-18T15:29:53.412Z,6.27
2019-01-18T15:33:59.162Z,6.30
2019-01-18T15:38:06.382Z,6.37
2019-01-18T15:42:12.188Z,6.29
2019-01-18T15:46:17.897Z,6.27
2019-01-18T15:50:27.486Z,6.30
2019-01-18T15:54:33.180Z,6.32
2019-01-18T15:58:38.901Z,6.32
2019-01-18T16:02:44.626Z,6.30
2019-01-18T16:06:50.422Z,6.24
2019-01-18T16:10:56.078Z,6.21
2019-01-18T16:15:01.766Z,6.19
2019-01-18T16:19:08.393Z,6.22
2019-01-18T16:23:14.201Z,5.98
2019-01-18T16:27:19.887Z,6.01
2019-01-18T16:31:25.732Z,6.00
2019-01-18T16:35:31.473Z,5.88
2019-01-18T16:39:37.403Z,5.85
2019-01-18T16:43:43.084Z,5.69
2019-01-18T16:47:48.783Z,5.54
2019-01-18T16:51:54.475Z,5.66
2019-01-18T16:56:00.167Z,5.72
2019-01-18T17:00:29.285Z,5.69
2019-01-18T17:04:34.968Z,5.70
2019-01-18T17:08:40.653Z,5.83
2019-01-18T17:12:46.582Z,5.80
2019-01-18T17:16:52.281Z,5.78
2019-01-18T17:20:58.114Z,5.77
2019-01-18T17:25:03.850Z,5.69
2019-01-18T17:29:12.071Z,5.71
2019-01-18T17:33:17.896Z,5.80
2019-01-18T17:37:24.138Z,5.69
2019-01-18T17:41:58.128Z,5.61
2019-01-18T17:46:11.090Z,5.53
2019-01-18T17:50:55.318Z,5.47
2019-01-18T17:55:08.285Z,5.43
2019-01-18T17:59:42.369Z,5.40
2019-01-18T18:03:58.437Z,5.40
2019-01-18T18:08:23.193Z,5.40
2019-01-18T18:12:48.532Z,5.40
2019-01-18T18:17:07.923Z,5.37
2019-01-18T18:21:48.871Z,5.33
2019-01-18T18:26:04.694Z,5.35
2019-01-18T18:30:44.863Z,5.34
2019-01-18T18:35:17.701Z,5.34
2019-01-18T18:40:00.978Z,5.47
2019-01-18T18:44:45.328Z,5.56
2019-01-18T18:49:01.512Z,5.43
2019-01-18T18:53:43.321Z,5.27
2019-01-18T18:58:20.152Z,5.33
2019-01-18T19:02:57.510Z,5.60
2019-01-18T19:07:19.013Z,5.47
2019-01-18T19:11:40.934Z,5.39
2019-01-18T19:16:31.631Z,5.50
2019-01-18T19:21:13.177Z,5.72
2019-01-18T19:25:37.461Z,5.70
2019-01-18T19:30:13.086Z,5.63
2019-01-18T19:34:31.931Z,5.62
2019-01-18T19:38:45.126Z,5.58
2019-01-18T19:43:10.101Z,5.51
2019-01-18T19:47:26.088Z,5.43
2019-01-18T19:51:42.343Z,5.40
2019-01-18T19:55:58.305Z,5.38
2019-01-18T20:00:26.029Z,5.38
2019-01-18T20:04:53.632Z,5.34
2019-01-18T20:09:21.786Z,5.25
2019-01-18T20:14:00.416Z,5.29
2019-01-18T20:18:16.366Z,5.29
2019-01-18T20:22:45.561Z,5.25
2019-01-18T20:27:24.065Z,5.18
2019-01-18T20:31:47.136Z,5.17
2019-01-18T20:36:15.057Z,5.26
2019-01-18T20:40:34.447Z,5.16
2019-01-18T20:44:47.191Z,5.07
2019-01-18T20:49:22.526Z,5.00
2019-01-18T20:54:00.571Z,4.98
2019-01-18T20:58:33.302Z,4.93
2019-01-18T21:02:48.911Z,4.83
2019-01-18T21:07:19.287Z,4.76
2019-01-18T21:11:35.198Z,4.68
2019-01-18T21:16:01.367Z,4.63
2019-01-18T21:20:38.627Z,4.56
2019-01-18T21:24:51.594Z,4.55
2019-01-18T21:29:10.104Z,4.52
2019-01-18T21:33:44.240Z,4.47
2019-01-18T21:37:57.092Z,4.36
2019-01-18T21:42:27.913Z,4.36
2019-01-18T21:46:49.747Z,4.29
2019-01-18T21:51:41.800Z,4.36
2019-01-18T21:56:01.014Z,4.37
2019-01-18T22:00:36.916Z,4.32
2019-01-18T22:04:49.873Z,4.25
2019-01-18T22:09:08.886Z,4.31
2019-01-18T22:13:30.542Z,4.35
2019-01-18T22:17:52.576Z,4.48
2019-01-18T22:22:23.475Z,4.50
2019-01-18T22:26:45.118Z,4.52
2019-01-18T22:31:20.379Z,4.50
2019-01-18T22:35:42.418Z,4.41
2019-01-18T22:40:07.212Z,4.38
2019-01-18T22:44:21.652Z,4.27
2019-01-18T22:48:35.790Z,4.19
2019-01-18T22:52:57.850Z,4.18
2019-01-18T22:57:40.862Z,4.15
2019-01-18T23:02:03.092Z,4.16
2019-01-18T23:06:41.611Z,4.13
2019-01-18T23:11:03.422Z,4.14
2019-01-18T23:15:30.064Z,4.24
2019-01-18T23:19:45.970Z,4.20
2019-01-18T23:24:10.788Z,4.21
2019-01-18T23:28:32.729Z,4.05
2019-01-18T23:32:51.552Z,4.01
2019-01-18T23:37:24.206Z,3.93
2019-01-18T23:41:52.160Z,3.82
2019-01-18T23:46:04.989Z,3.75
2019-01-18T23:50:31.766Z,3.76
2019-01-18T23:54:56.740Z,3.83
2019-01-18T23:59:28.983Z,3.77
